createdAt,value
2018-06-24T00:02:11.920Z,3.90
2018-06-24T00:04:40.640Z,4.53
2018-06-24T00:07:09.797Z,3.67
2018-06-24T00:09:38.561Z,3.90
2018-06-24T00:12:07.109Z,3.70
2018-06-24T00:14:36.017Z,3.60
2018-06-24T00:17:04.418Z,3.37
2018-06-24T00:19:32.924Z,3.50
2018-06-24T00:22:01.272Z,3.10
2018-06-24T00:24:29.687Z,3.27
2018-06-24T00:26:58.405Z,3.50
2018-06-24T00:29:27.307Z,3.83
2018-06-24T00:31:56.031Z,3.10
2018-06-24T00:34:24.692Z,3.23
2018-06-24T00:36:54.016Z,3.13
2018-06-24T00:39:22.306Z,3.37
2018-06-24T00:41:51.002Z,3.10
2018-06-24T00:44:19.385Z,3.40
2018-06-24T00:46:48.075Z,3.00
2018-06-24T00:49:16.352Z,3.67
2018-06-24T00:51:44.714Z,3.27
2018-06-24T00:54:13.035Z,3.70
2018-06-24T00:56:41.713Z,3.77
2018-06-24T00:59:20.389Z,4.07
2018-06-24T01:01:48.705Z,4.10
2018-06-24T01:04:17.384Z,4.03
2018-06-24T01:06:46.412Z,4.00
2018-06-24T01:09:14.728Z,3.80
2018-06-24T01:11:43.497Z,4.30
2018-06-24T01:14:11.876Z,3.87
2018-06-24T01:16:40.220Z,3.70
2018-06-24T01:19:08.954Z,3.70
2018-06-24T01:21:37.305Z,3.93
2018-06-24T01:24:06.111Z,3.90
2018-06-24T01:26:34.836Z,4.50
2018-06-24T01:29:03.616Z,3.50
2018-06-24T01:31:32.407Z,4.13
2018-06-24T01:34:01.152Z,4.00
2018-06-24T01:36:29.916Z,3.73
2018-06-24T01:38:58.625Z,4.20
2018-06-24T01:41:26.948Z,3.30
2018-06-24T01:43:55.538Z,3.67
2018-06-24T01:46:24.298Z,3.60
2018-06-24T01:48:52.982Z,3.67
2018-06-24T01:51:21.718Z,3.80
2018-06-24T01:53:50.020Z,4.03
2018-06-24T01:56:18.404Z,3.43
2018-06-24T01:58:48.803Z,3.83
2018-06-24T02:01:17.094Z,3.50
2018-06-24T02:03:45.755Z,3.20
2018-06-24T02:06:14.088Z,3.23
2018-06-24T02:08:42.788Z,3.67
2018-06-24T02:11:11.561Z,3.30
2018-06-24T02:13:40.336Z,3.40
2018-06-24T02:16:09.021Z,3.70
2018-06-24T02:18:37.359Z,3.80
2018-06-24T02:21:06.174Z,3.80
2018-06-24T02:23:34.882Z,4.43
2018-06-24T02:26:03.252Z,4.63
2018-06-24T02:28:31.591Z,4.43
2018-06-24T02:31:00.379Z,4.60
2018-06-24T02:33:29.071Z,5.03
2018-06-24T02:35:57.857Z,4.70
2018-06-24T02:38:26.200Z,5.10
2018-06-24T02:40:54.956Z,5.20
2018-06-24T02:43:23.331Z,5.97
2018-06-24T02:45:52.114Z,4.37
2018-06-24T02:48:20.904Z,4.47
2018-06-24T02:50:49.269Z,3.87
2018-06-24T02:53:17.593Z,4.23
2018-06-24T02:55:46.379Z,3.83
2018-06-24T02:58:14.706Z,3.70
2018-06-24T03:00:43.012Z,3.40
2018-06-24T03:03:11.356Z,3.37
2018-06-24T03:05:39.680Z,3.77
2018-06-24T03:08:08.051Z,4.07
2018-06-24T03:10:36.722Z,3.77
2018-06-24T03:13:05.552Z,3.70
2018-06-24T03:15:33.911Z,3.60
2018-06-24T03:18:02.546Z,3.03
2018-06-24T03:20:31.292Z,3.67
2018-06-24T03:23:00.592Z,3.57
2018-06-24T03:25:29.270Z,3.80
2018-06-24T03:27:57.975Z,3.10
2018-06-24T03:30:26.315Z,3.30
2018-06-24T03:32:54.670Z,3.60
2018-06-24T03:35:23.316Z,3.20
2018-06-24T03:37:51.660Z,3.40
2018-06-24T03:40:19.999Z,3.30
2018-06-24T03:42:48.315Z,3.40
2018-06-24T03:45:17.022Z,3.33
2018-06-24T03:47:45.415Z,3.27
2018-06-24T03:50:14.207Z,3.43
2018-06-24T03:52:42.919Z,2.90
2018-06-24T03:55:11.257Z,4.10
2018-06-24T03:57:40.015Z,3.30
2018-06-24T04:00:12.756Z,3.37
2018-06-24T04:02:41.058Z,3.70
2018-06-24T04:05:09.745Z,3.47
2018-06-24T04:07:38.268Z,3.90
2018-06-24T04:10:07.134Z,3.57
2018-06-24T04:12:35.425Z,4.40
2018-06-24T04:15:04.227Z,4.50
2018-06-24T04:17:32.878Z,4.47
2018-06-24T04:20:01.652Z,4.30
2018-06-24T04:22:29.994Z,3.97
2018-06-24T04:24:58.742Z,4.20
2018-06-24T04:27:27.461Z,4.20
2018-06-24T04:29:55.855Z,4.30
2018-06-24T04:32:24.277Z,4.60
2018-06-24T04:34:52.629Z,4.50
2018-06-24T04:37:21.324Z,4.30
2018-06-24T04:39:49.648Z,4.43
2018-06-24T04:42:17.956Z,4.50
2018-06-24T04:44:46.621Z,4.43
2018-06-24T04:47:14.955Z,4.60
2018-06-24T04:49:43.256Z,4.60
2018-06-24T04:52:11.542Z,3.90
2018-06-24T04:54:40.205Z,5.10
2018-06-24T04:57:08.567Z,4.50
2018-06-24T04:59:36.940Z,4.57
2018-06-24T05:02:05.957Z,4.73
2018-06-24T05:04:34.430Z,4.83
2018-06-24T05:07:03.120Z,4.50
2018-06-24T05:09:33.580Z,4.47
2018-06-24T05:12:01.923Z,4.37
2018-06-24T05:14:30.312Z,4.57
2018-06-24T05:16:59.103Z,5.27
2018-06-24T05:19:27.977Z,5.00
2018-06-24T05:21:58.912Z,5.17
2018-06-24T05:24:28.211Z,4.77
2018-06-24T05:26:56.640Z,4.90
2018-06-24T05:29:26.043Z,4.57
2018-06-24T05:31:54.481Z,4.93
2018-06-24T05:34:22.903Z,4.60
2018-06-24T05:36:51.995Z,4.37
2018-06-24T05:39:20.321Z,5.13
2018-06-24T05:41:48.659Z,4.57
2018-06-24T05:44:17.038Z,4.90
2018-06-24T05:46:45.627Z,4.93
2018-06-24T05:49:14.784Z,5.43
2018-06-24T05:51:43.550Z,5.30
2018-06-24T05:54:12.456Z,4.97
2018-06-24T05:56:41.577Z,5.27
2018-06-24T05:59:13.473Z,4.57
2018-06-24T06:01:42.066Z,5.30
2018-06-24T06:04:15.778Z,4.60
2018-06-24T06:06:44.134Z,4.90
2018-06-24T06:09:16.417Z,4.93
2018-06-24T06:11:45.392Z,5.07
2018-06-24T06:14:13.711Z,5.10
2018-06-24T06:16:49.636Z,5.00
2018-06-24T06:19:18.136Z,5.17
2018-06-24T06:21:48.582Z,5.00
2018-06-24T06:24:16.915Z,5.13
2018-06-24T06:26:45.697Z,5.43
2018-06-24T06:29:20.649Z,5.00
2018-06-24T06:31:50.182Z,5.13
2018-06-24T06:34:19.100Z,5.60
2018-06-24T06:36:54.282Z,5.97
2018-06-24T06:39:23.343Z,5.70
2018-06-24T06:41:51.789Z,6.40
2018-06-24T06:44:21.301Z,5.73
2018-06-24T06:46:49.616Z,6.23
2018-06-24T06:49:18.265Z,5.57
2018-06-24T06:51:46.864Z,5.20
2018-06-24T06:54:15.813Z,5.47
2018-06-24T06:56:45.125Z,5.43
2018-06-24T06:59:13.573Z,5.33
2018-06-24T07:01:43.287Z,5.20
2018-06-24T07:04:12.279Z,5.27
2018-06-24T07:06:41.213Z,5.50
2018-06-24T07:09:13.063Z,5.00
2018-06-24T07:14:33.886Z,6.00
2018-06-24T07:17:02.250Z,5.47
2018-06-24T07:19:31.221Z,5.10
2018-06-24T07:21:59.610Z,4.70
2018-06-24T07:24:27.933Z,5.03
2018-06-24T07:26:56.205Z,4.83
2018-06-24T07:29:24.969Z,5.03
2018-06-24T07:31:53.329Z,5.00
2018-06-24T07:34:24.037Z,5.37
2018-06-24T07:36:53.976Z,4.53
2018-06-24T07:39:22.356Z,5.10
2018-06-24T07:41:51.032Z,5.13
2018-06-24T07:44:19.480Z,4.30
2018-06-24T07:46:48.871Z,4.57
2018-06-24T07:49:17.173Z,4.63
2018-06-24T07:51:46.448Z,4.87
2018-06-24T07:54:15.620Z,4.47
2018-06-24T07:56:43.985Z,3.90
2018-06-24T07:59:12.319Z,4.00
2018-06-24T08:01:40.683Z,4.03
2018-06-24T08:04:09.591Z,3.87
2018-06-24T08:06:38.449Z,4.30
2018-06-24T08:09:08.185Z,4.10
2018-06-24T08:11:36.869Z,4.20
2018-06-24T08:14:05.763Z,3.83
2018-06-24T08:16:40.503Z,3.60
2018-06-24T08:19:08.862Z,4.23
2018-06-24T08:21:37.213Z,4.30
2018-06-24T08:24:05.645Z,4.30
2018-06-24T08:26:34.186Z,4.67
2018-06-24T08:29:03.214Z,4.20
2018-06-24T08:31:34.575Z,4.30
2018-06-24T08:34:03.739Z,4.43
2018-06-24T08:36:32.544Z,4.50
2018-06-24T08:39:01.018Z,4.63
2018-06-24T08:41:30.112Z,5.43
2018-06-24T08:43:58.786Z,6.70
2018-06-24T08:46:29.701Z,5.60
2018-06-24T08:48:58.061Z,5.83
2018-06-24T08:51:27.243Z,6.43
2018-06-24T08:53:55.601Z,5.87
2018-06-24T08:56:23.867Z,6.80
2018-06-24T08:58:52.198Z,6.80
2018-06-24T09:01:21.646Z,7.20
2018-06-24T09:03:50.030Z,7.60
2018-06-24T09:06:18.357Z,7.10
2018-06-24T09:08:48.038Z,7.30
2018-06-24T09:11:17.064Z,7.10
2018-06-24T09:13:47.146Z,7.77
2018-06-24T09:16:15.714Z,8.07
2018-06-24T09:18:44.970Z,8.03
2018-06-24T09:21:13.431Z,8.07
2018-06-24T09:23:42.127Z,8.10
2018-06-24T09:26:10.961Z,8.23
2018-06-24T09:28:39.777Z,8.20
2018-06-24T09:31:08.581Z,6.97
2018-06-24T09:33:37.032Z,7.13
2018-06-24T09:36:05.626Z,6.97
2018-06-24T09:38:41.552Z,7.57
2018-06-24T09:41:20.335Z,6.73
2018-06-24T09:43:55.410Z,7.23
2018-06-24T09:46:35.223Z,6.40
2018-06-24T09:49:11.423Z,7.00
2018-06-24T09:51:48.322Z,6.50
2018-06-24T09:54:26.529Z,6.17
2018-06-24T09:57:04.678Z,5.83
2018-06-24T09:59:41.161Z,6.57
2018-06-24T10:02:21.016Z,6.53
2018-06-24T10:04:58.215Z,6.43
2018-06-24T10:07:36.468Z,6.80
2018-06-24T10:10:10.020Z,6.30
2018-06-24T10:12:48.116Z,6.83
2018-06-24T10:15:23.835Z,6.87
2018-06-24T10:17:59.956Z,6.00
2018-06-24T10:20:36.913Z,6.00
2018-06-24T10:23:15.162Z,6.23
2018-06-24T10:25:44.123Z,4.80
2018-06-24T10:28:12.878Z,5.03
2018-06-24T10:30:41.618Z,8.03
2018-06-24T10:33:10.088Z,5.57
2018-06-24T10:35:38.608Z,5.57
2018-06-24T10:38:07.416Z,4.63
2018-06-24T10:40:36.382Z,4.93
2018-06-24T10:43:04.899Z,4.77
2018-06-24T10:45:33.750Z,5.40
2018-06-24T10:48:16.177Z,4.60
2018-06-24T10:50:44.557Z,4.43
2018-06-24T10:53:16.637Z,4.30
2018-06-24T10:55:45.367Z,4.73
2018-06-24T10:58:14.160Z,4.70
2018-06-24T11:00:42.531Z,4.60
2018-06-24T11:03:10.956Z,4.57
2018-06-24T11:05:39.394Z,4.90
2018-06-24T11:08:08.169Z,5.17
2018-06-24T11:10:36.536Z,4.47
2018-06-24T11:13:04.884Z,4.83
2018-06-24T11:15:33.637Z,5.33
2018-06-24T11:18:02.285Z,4.60
2018-06-24T11:20:30.876Z,4.20
2018-06-24T11:22:59.194Z,4.63
2018-06-24T11:25:28.004Z,4.00
2018-06-24T11:27:56.653Z,4.57
2018-06-24T11:30:25.684Z,4.60
2018-06-24T11:32:54.350Z,4.90
2018-06-24T11:35:23.044Z,4.43
2018-06-24T11:37:51.305Z,4.37
2018-06-24T11:40:19.585Z,4.37
2018-06-24T11:42:48.250Z,3.93
2018-06-24T11:45:16.929Z,4.60
2018-06-24T11:47:46.950Z,4.33
2018-06-24T11:50:15.288Z,4.73
2018-06-24T11:52:44.179Z,4.77
2018-06-24T11:55:12.794Z,5.00
2018-06-24T11:57:41.496Z,4.80
2018-06-24T12:00:09.789Z,5.00
2018-06-24T12:02:38.702Z,4.47
2018-06-24T12:05:07.310Z,4.87
2018-06-24T12:07:35.603Z,5.07
2018-06-24T12:10:04.340Z,5.00
2018-06-24T12:12:35.852Z,5.30
2018-06-24T12:15:04.661Z,5.63
2018-06-24T12:17:33.318Z,5.20
2018-06-24T12:20:01.998Z,5.37
2018-06-24T12:22:30.278Z,5.47
2018-06-24T12:24:59.082Z,4.57
2018-06-24T12:27:27.983Z,4.77
2018-06-24T12:29:56.871Z,4.30
2018-06-24T12:32:25.530Z,4.30
2018-06-24T12:34:54.149Z,4.53
2018-06-24T12:37:22.870Z,4.27
2018-06-24T12:39:52.500Z,4.43
2018-06-24T12:42:21.584Z,4.90
2018-06-24T12:44:50.254Z,4.97
2018-06-24T12:47:18.929Z,5.10
2018-06-24T12:49:48.118Z,5.00
2018-06-24T12:52:17.568Z,5.77
2018-06-24T12:54:46.027Z,5.30
2018-06-24T12:57:14.917Z,5.00
2018-06-24T12:59:49.026Z,5.23
2018-06-24T13:02:22.266Z,5.50
2018-06-24T13:04:55.878Z,5.23
2018-06-24T13:07:27.785Z,4.97
2018-06-24T13:10:01.353Z,4.40
2018-06-24T13:12:35.554Z,4.17
2018-06-24T13:15:12.631Z,3.87
2018-06-24T13:17:47.000Z,4.30
2018-06-24T13:20:21.640Z,5.37
2018-06-24T13:22:50.774Z,4.40
2018-06-24T13:25:20.143Z,5.17
2018-06-24T13:27:57.747Z,4.63
2018-06-24T13:30:35.053Z,4.23
2018-06-24T13:33:06.545Z,4.17
2018-06-24T13:35:38.201Z,4.73
2018-06-24T13:38:11.692Z,4.07
2018-06-24T13:40:40.203Z,2.97
2018-06-24T13:43:08.519Z,2.63
2018-06-24T13:45:37.848Z,2.57
2018-06-24T13:48:10.091Z,2.57
2018-06-24T13:50:39.051Z,2.30
2018-06-24T13:53:07.733Z,2.23
2018-06-24T13:55:36.556Z,2.00
2018-06-24T13:58:05.166Z,2.50
2018-06-24T14:00:33.561Z,1.87
2018-06-24T14:03:01.905Z,2.00
2018-06-24T14:05:30.654Z,2.00
2018-06-24T14:07:59.416Z,1.97
2018-06-24T14:10:27.777Z,1.73
2018-06-24T14:12:56.472Z,1.70
2018-06-24T14:15:24.826Z,1.90
2018-06-24T14:17:53.624Z,2.10
2018-06-24T14:20:22.343Z,1.93
2018-06-24T14:22:51.106Z,1.90
2018-06-24T14:25:19.778Z,2.20
2018-06-24T14:27:48.520Z,1.93
2018-06-24T14:30:16.848Z,2.17
2018-06-24T14:32:46.092Z,1.93
2018-06-24T14:35:14.817Z,2.07
2018-06-24T14:37:43.521Z,2.27
2018-06-24T14:40:13.465Z,2.50
2018-06-24T14:42:42.180Z,2.30
2018-06-24T14:45:10.884Z,2.50
2018-06-24T14:47:39.243Z,3.20
2018-06-24T14:50:08.032Z,2.60
2018-06-24T14:52:36.794Z,2.83
2018-06-24T14:55:05.105Z,2.70
2018-06-24T14:57:33.782Z,2.70
2018-06-24T15:00:04.179Z,2.77
2018-06-24T15:02:35.194Z,3.20
2018-06-24T15:05:05.046Z,3.37
2018-06-24T15:07:34.552Z,3.67
2018-06-24T15:10:03.270Z,3.87
2018-06-24T15:12:31.952Z,4.50
2018-06-24T15:15:00.335Z,4.57
2018-06-24T15:17:29.005Z,3.70
2018-06-24T15:19:57.686Z,3.90
2018-06-24T15:22:29.220Z,3.97
2018-06-24T15:24:57.913Z,4.40
2018-06-24T15:27:26.209Z,3.87
2018-06-24T15:29:54.523Z,4.40
2018-06-24T15:32:23.241Z,4.13
2018-06-24T15:34:51.563Z,3.60
2018-06-24T15:37:20.384Z,3.87
2018-06-24T15:39:48.763Z,3.87
2018-06-24T15:42:17.094Z,3.43
2018-06-24T15:44:45.433Z,3.93
2018-06-24T15:47:14.616Z,3.73
2018-06-24T15:49:43.048Z,4.00
2018-06-24T15:52:11.726Z,5.03
2018-06-24T15:54:40.480Z,4.53
2018-06-24T15:57:08.825Z,5.53
2018-06-24T15:59:37.417Z,5.70
2018-06-24T16:02:06.642Z,5.87
2018-06-24T16:04:34.965Z,5.80
2018-06-24T16:07:03.423Z,6.10
2018-06-24T16:09:31.859Z,5.90
2018-06-24T16:12:00.391Z,6.33
2018-06-24T16:14:29.027Z,6.57
2018-06-24T16:16:57.788Z,6.30
2018-06-24T16:19:28.265Z,6.20
2018-06-24T16:21:56.826Z,6.30
2018-06-24T16:24:25.775Z,5.90
2018-06-24T16:26:54.216Z,5.70
2018-06-24T16:29:22.899Z,5.80
2018-06-24T16:31:51.565Z,6.07
2018-06-24T16:34:22.464Z,5.10
2018-06-24T16:36:51.160Z,5.00
2018-06-24T16:39:19.952Z,5.27
2018-06-24T16:41:48.756Z,5.00
2018-06-24T16:44:17.440Z,4.70
2018-06-24T16:46:46.695Z,4.70
2018-06-24T16:49:15.439Z,4.93
2018-06-24T16:51:46.624Z,4.90
2018-06-24T16:54:15.804Z,4.83
2018-06-24T16:56:44.429Z,5.13
2018-06-24T16:59:12.714Z,4.83
2018-06-24T17:01:41.621Z,4.60
2018-06-24T17:04:10.008Z,4.37
2018-06-24T17:06:38.379Z,4.40
2018-06-24T17:09:15.188Z,3.93
2018-06-24T17:11:43.862Z,3.23
2018-06-24T17:14:12.242Z,3.70
2018-06-24T17:16:45.441Z,3.50
2018-06-24T17:19:21.309Z,4.00
2018-06-24T17:21:50.119Z,3.90
2018-06-24T17:24:18.559Z,3.70
2018-06-24T17:26:47.282Z,3.43
2018-06-24T17:29:23.968Z,3.67
2018-06-24T17:31:52.253Z,3.60
2018-06-24T17:34:21.013Z,4.40
2018-06-24T17:36:49.524Z,4.10
2018-06-24T17:39:17.907Z,3.70
2018-06-24T17:41:46.850Z,3.77
2018-06-24T17:44:16.153Z,3.37
2018-06-24T17:46:44.484Z,4.03
2018-06-24T17:49:12.862Z,4.00
2018-06-24T17:51:41.621Z,4.00
2018-06-24T17:54:09.933Z,4.13
2018-06-24T17:56:38.297Z,3.77
2018-06-24T17:59:06.705Z,3.80
2018-06-24T18:01:35.067Z,3.80
2018-06-24T18:04:03.867Z,4.03
2018-06-24T18:06:33.353Z,4.20
2018-06-24T18:09:02.024Z,4.77
2018-06-24T18:11:30.848Z,4.60
2018-06-24T18:13:59.626Z,4.40
2018-06-24T18:16:28.441Z,4.63
2018-06-24T18:18:56.806Z,4.73
2018-06-24T18:21:25.192Z,4.73
2018-06-24T18:23:53.526Z,4.30
2018-06-24T18:26:22.277Z,4.63
2018-06-24T18:28:50.738Z,3.87
2018-06-24T18:31:19.471Z,3.97
2018-06-24T18:33:48.209Z,3.70
2018-06-24T18:36:16.709Z,4.13
2018-06-24T18:38:45.223Z,4.20
2018-06-24T18:41:13.595Z,4.53
2018-06-24T18:43:41.980Z,3.93
2018-06-24T18:46:10.737Z,3.90
2018-06-24T18:48:39.225Z,4.13
2018-06-24T18:51:07.749Z,4.43
2018-06-24T18:53:36.662Z,4.17
2018-06-24T18:56:05.159Z,4.37
2018-06-24T18:58:33.629Z,4.33
2018-06-24T19:01:02.071Z,4.17
2018-06-24T19:03:30.435Z,4.43
2018-06-24T19:05:59.217Z,4.37
2018-06-24T19:08:27.513Z,5.10
2018-06-24T19:10:56.022Z,4.50
2018-06-24T19:13:24.842Z,4.97
2018-06-24T19:15:53.806Z,4.90
2018-06-24T19:18:22.140Z,4.90
2018-06-24T19:20:50.560Z,4.47
2018-06-24T19:23:18.915Z,4.87
2018-06-24T19:25:47.311Z,5.13
2018-06-24T19:28:15.726Z,5.27
2018-06-24T19:30:44.212Z,5.30
2018-06-24T19:33:12.662Z,5.37
2018-06-24T19:35:41.022Z,4.93
2018-06-24T19:38:09.821Z,5.30
2018-06-24T19:40:38.712Z,5.40
2018-06-24T19:43:07.488Z,5.00
2018-06-24T19:45:36.207Z,5.20
2018-06-24T19:48:04.611Z,5.20
2018-06-24T19:50:32.933Z,4.67
2018-06-24T19:53:01.642Z,5.83
2018-06-24T19:55:30.361Z,4.50
2018-06-24T19:57:59.133Z,5.40
2018-06-24T20:00:27.877Z,5.57
2018-06-24T20:02:56.581Z,5.10
2018-06-24T20:05:24.938Z,4.80
2018-06-24T20:07:53.333Z,4.77
2018-06-24T20:10:22.076Z,4.53
2018-06-24T20:12:50.476Z,4.97
2018-06-24T20:15:18.836Z,4.33
2018-06-24T20:17:47.637Z,5.20
2018-06-24T20:20:15.984Z,5.00
2018-06-24T20:22:44.348Z,5.37
2018-06-24T20:25:13.220Z,5.57
2018-06-24T20:27:41.997Z,4.53
2018-06-24T20:30:10.712Z,5.13
2018-06-24T20:32:39.132Z,5.07
2018-06-24T20:35:07.433Z,4.40
2018-06-24T20:37:36.161Z,5.13
2018-06-24T20:40:04.998Z,5.20
2018-06-24T20:42:33.457Z,4.67
2018-06-24T20:45:01.888Z,5.00
2018-06-24T20:47:30.230Z,5.03
2018-06-24T20:49:59.843Z,4.63
2018-06-24T20:52:28.197Z,5.20
2018-06-24T20:54:56.512Z,5.33
2018-06-24T20:57:24.828Z,5.50
2018-06-24T20:59:53.163Z,5.13
2018-06-24T21:02:21.576Z,5.40
2018-06-24T21:04:49.950Z,4.87
2018-06-24T21:07:18.658Z,5.07
2018-06-24T21:09:47.002Z,4.60
2018-06-24T21:12:15.836Z,5.13
2018-06-24T21:14:44.166Z,5.30
2018-06-24T21:17:12.889Z,5.50
2018-06-24T21:19:41.663Z,4.53
2018-06-24T21:22:10.403Z,4.70
2018-06-24T21:24:40.339Z,4.60
2018-06-24T21:27:11.069Z,4.87
2018-06-24T21:29:40.193Z,4.80
2018-06-24T21:32:13.166Z,4.87
2018-06-24T21:34:41.724Z,4.40
2018-06-24T21:37:10.039Z,4.57
2018-06-24T21:39:38.517Z,4.47
2018-06-24T21:42:06.862Z,3.93
2018-06-24T21:44:35.392Z,3.60
2018-06-24T21:47:04.096Z,3.87
2018-06-24T21:49:32.591Z,3.70
2018-06-24T21:52:01.662Z,3.93
2018-06-24T21:54:29.977Z,3.60
2018-06-24T21:56:58.653Z,3.67
2018-06-24T21:59:27.262Z,3.83
2018-06-24T22:01:56.006Z,4.17
2018-06-24T22:04:24.349Z,3.90
2018-06-24T22:06:53.818Z,4.33
2018-06-24T22:09:22.831Z,3.63
2018-06-24T22:11:51.339Z,3.50
2018-06-24T22:14:19.635Z,3.10
2018-06-24T22:16:48.432Z,3.37
2018-06-24T22:19:16.918Z,3.40
2018-06-24T22:21:45.286Z,3.37
2018-06-24T22:24:13.781Z,3.47
2018-06-24T22:26:42.521Z,3.47
2018-06-24T22:29:11.217Z,3.40
2018-06-24T22:31:39.526Z,4.03
2018-06-24T22:34:07.944Z,4.30
2018-06-24T22:36:36.343Z,4.17
2018-06-24T22:39:06.715Z,4.43
2018-06-24T22:41:35.131Z,4.67
2018-06-24T22:44:03.846Z,4.03
2018-06-24T22:46:32.604Z,3.90
2018-06-24T22:49:01.265Z,4.00
2018-06-24T22:51:30.074Z,4.03
2018-06-24T22:53:58.459Z,3.40
2018-06-24T22:56:26.939Z,3.50
2018-06-24T22:59:00.945Z,3.77
2018-06-24T23:01:29.957Z,4.13
2018-06-24T23:03:58.538Z,4.37
2018-06-24T23:06:27.007Z,3.97
2018-06-24T23:08:55.591Z,3.93
2018-06-24T23:11:23.987Z,4.10
2018-06-24T23:13:52.451Z,3.70
2018-06-24T23:16:21.165Z,4.17
2018-06-24T23:18:49.564Z,3.80
2018-06-24T23:21:18.306Z,3.93
2018-06-24T23:23:46.645Z,4.40
2018-06-24T23:26:15.020Z,3.43
2018-06-24T23:28:43.329Z,5.13
2018-06-24T23:31:12.069Z,4.40
2018-06-24T23:33:40.922Z,4.43
2018-06-24T23:36:09.255Z,4.57
2018-06-24T23:38:37.939Z,4.67
2018-06-24T23:41:06.702Z,4.60
2018-06-24T23:43:35.072Z,4.50
2018-06-24T23:46:03.665Z,4.80
2018-06-24T23:48:32.492Z,4.27
2018-06-24T23:51:01.295Z,4.20
2018-06-24T23:53:29.579Z,4.23
2018-06-24T23:55:58.025Z,4.07
2018-06-24T23:58:26.393Z,4.20
